Oaxaca Xoxocotlan, Mexico

12:13 AM CDT on July 30, 2015 (GMT -0500)
Xoxocotlan International | | Change Station
CLOSE
Current Station
Airport
Location: Oaxaca,
Elevation: 5013 ft
Nearby Weather Stations

Elev 5013 ft 16.97 °N, 96.73 °W | Updated 28 minutes ago

Mostly Cloudy
Mostly Cloudy
70 °F
Feels Like 70 °F
N
12
Wind Variable Wind from ENE

Today
High -- | Low -- °F
--% Chance of Precip.
Yesterday
High -- | Low -- °F
Precip. -- in
7:06 AM 8:00 PM
Waxing Gibbous, 98% visible
Pressure 30.32 in
Visibility 7.0 miles
Clouds Scattered Clouds 2500 ft
Scattered Clouds 9000 ft
Mostly Cloudy 22000 ft
Dew Point 50 °F
Humidity 49%
Rainfall 0.00 in
Snow Depth Not available.
UV 0 out of 12
Pollen Not available.
Air Quality Not available.
Flu Activity Not available.
METAR MMOX 300445Z 06010KT 7SM SCT025 SCT090 BKN220 21/10 A3032 RMK 8/132

More Conditions Fewer Conditions

Pressure 30.32 in
Visibility 7.0 miles
Clouds Scattered Clouds 2500 ft
Scattered Clouds 9000 ft
Mostly Cloudy 22000 ft
Dew Point 50 °F
Humidity 49%
Rainfall 0.00 in
Snow Depth Not available.
UV 0 out of 12
Pollen Not available.
Air Quality Not available.
Flu Activity Not available.
METAR MMOX 300445Z 06010KT 7SM SCT025 SCT090 BKN220 21/10 A3032 RMK 8/132

More Conditions Fewer Conditions

10-Day Weather Forecast

×

Almanac

Astronomy

Jul. 30, 2015 Rise Set
Actual Time
Civil Twilight
Nautical Twilight
Astronomical Twilight
Moon
Length of Visible Light
Length of Day
Tomorrow will be .
, % of the Moon is Illuminated

Today's Extremes

Country Highs Country Lows

Community

WunderPhotos

Upload Photos

1,842,308 photos uploaded!

WunderBlogs® & News

Nearby

Air Quality

  Air Quality AQ Index Pollutant
Not available.

Snow Depth

Station Depth Elevation

Earthquake Activity

City Distance Mag. Time & Date
Minimum magnitude displayed is 2.5.

Coastal Water Temperatures

Place Temperature

Stations

Nearby Weather Stations

Station Location Temp. Windchill Dew Point Humidity Wind Precip. Elev Updated Type